Terminal Aerodrome Forecast
Issued by NWS

Home | Current Version | Previous Version | Text Only | Print | Product List | Glossary On
Versions: 1 2 3 4 5 6 7 8 9 10 11 12 13 14
631
FTUS45 KTFX 262334
TAFGTF
TAF
KGTF 262334Z 2700/2724 VRB05KT P6SM FEW180
     FM270700 20009KT P6SM FEW070 FEW200
     FM271800 23007KT P6SM FEW110=

USA.gov is the U.S. government's official web portal to all federal, state and local government web resources and services.